Time;durP1;ratioP1;P1;durP2;ratioP2;P2;SDS_P1;SDS_P2;PMS_P1;PMS_P2;Temp;Humidity;BMP_temperature;BMP_pressure;BME280_temperature;BME280_humidity;BME280_pressure;Samples;Min_cycle;Max_cycle;Signal;HPM_P1;HPM_P2
2021/04/27 00:01:10;;;;;;;19.30;8.10;;;;;;;0.59;74.47;100018.98;1748385;82;21203;-75
2021/04/27 00:03:38;;;;;;;16.17;6.70;;;;;;;0.69;74.55;100022.88;1745643;82;21214;-75
2021/04/27 00:06:06;;;;;;;12.82;6.30;;;;;;;0.75;74.39;100011.23;1713556;82;21187;-74
2021/04/27 00:08:35;;;;;;;12.33;6.03;;;;;;;0.82;74.46;100006.48;1744840;82;21681;-75
2021/04/27 00:11:07;;;;;;;12.78;6.15;;;;;;;0.89;74.87;100006.92;1732710;82;21385;-74
2021/04/27 00:13:38;;;;;;;12.33;6.15;;;;;;;0.95;73.65;100003.04;1714676;83;21208;-74
2021/04/27 00:16:07;;;;;;;13.35;6.25;;;;;;;1.00;73.51;99993.52;1732084;82;21200;-74
2021/04/27 00:18:39;;;;;;;13.72;5.60;;;;;;;1.03;72.79;99989.62;1714665;83;21176;-73
2021/04/27 00:21:10;;;;;;;9.98;5.58;;;;;;;1.07;73.18;100000.88;1732398;82;22516;-73
2021/04/27 00:23:38;;;;;;;10.65;5.70;;;;;;;1.11;73.45;99999.16;1714795;83;21387;-73
2021/04/27 00:26:09;;;;;;;12.98;5.78;;;;;;;1.12;73.23;99999.57;1729913;82;21209;-74
2021/04/27 00:28:41;;;;;;;10.95;6.20;;;;;;;1.11;73.85;100002.61;1718179;83;21225;-74
2021/04/27 00:31:10;;;;;;;11.38;5.95;;;;;;;1.11;73.70;99997.86;1725593;83;21180;-75
2021/04/27 00:33:38;;;;;;;16.80;6.85;;;;;;;1.08;74.22;100002.59;1725593;83;21204;-74
2021/04/27 00:36:09;;;;;;;14.53;6.78;;;;;;;1.07;74.16;100005.20;1725788;83;21670;-73
2021/04/27 00:38:39;;;;;;;;;;;;;;;1.01;73.54;100001.75;1735651;81;21166;-75
2021/04/27 00:41:10;;;;;;;11.25;5.55;;;;;;;0.96;73.17;100002.16;1725014;82;20273;-72
2021/04/27 00:43:38;;;;;;;9.03;5.67;;;;;;;0.92;73.41;100009.53;1702414;84;21871;-73
2021/04/27 00:46:06;;;;;;;10.20;5.15;;;;;;;0.91;73.63;100011.67;1723755;82;21170;-73
2021/04/27 00:48:41;;;;;;;9.50;4.87;;;;;;;0.93;73.60;100015.14;1750526;81;21793;-73
2021/04/27 00:51:10;;;;;;;12.45;5.33;;;;;;;0.97;73.46;100018.61;1720704;83;21230;-74
2021/04/27 00:53:39;;;;;;;9.93;4.37;;;;;;;1.01;73.36;100010.83;1750577;81;21202;-72
2021/04/27 00:56:08;;;;;;;8.45;4.42;;;;;;;1.11;73.72;100014.72;1697901;83;21214;-72
2021/04/27 00:58:37;;;;;;;8.80;4.35;;;;;;;1.16;73.25;100010.38;1699569;83;21202;-73
2021/04/27 01:01:07;;;;;;;10.82;5.20;;;;;;;1.30;73.46;100020.31;1724191;83;21367;-71
2021/04/27 01:03:43;;;;;;;9.05;5.20;;;;;;;1.38;72.75;100017.28;1724020;83;21646;-72
2021/04/27 01:06:11;;;;;;;10.08;4.67;;;;;;;1.49;73.24;100018.98;1724020;83;21586;-72
2021/04/27 01:08:51;;;;;;;8.05;4.40;;;;;;;1.57;72.57;100019.84;1750574;81;21146;-72
2021/04/27 01:11:49;;;;;;;11.25;5.58;;;;;;;1.62;72.13;100018.09;1728997;81;21670;-71
2021/04/27 01:14:37;;;;;;;8.48;4.53;;;;;;;1.70;71.84;100018.06;1723710;83;22291;-71
2021/04/27 01:17:15;;;;;;;10.40;5.20;;;;;;;1.76;71.36;100020.22;1698449;83;21228;-71
2021/04/27 01:20:25;;;;;;;10.27;5.63;;;;;;;1.84;72.21;100011.98;1801846;78;21934;-73
2021/04/27 01:23:25;;;;;;;9.08;5.40;;;;;;;1.84;72.21;100011.98;1780085;80;21152;-73
2021/04/27 01:26:08;;;;;;;12.15;5.28;;;;;;;1.88;70.88;100020.16;1779535;80;21206;-73
2021/04/27 01:28:39;;;;;;;11.40;5.37;;;;;;;1.87;70.65;100021.05;1775209;80;21206;-71
2021/04/27 01:31:07;;;;;;;10.75;5.67;;;;;;;1.86;70.84;100019.34;1743404;80;21181;-73
2021/04/27 01:33:35;;;;;;;10.68;5.35;;;;;;;1.85;70.76;100024.08;1743510;80;21167;-73
2021/04/27 01:36:04;;;;;;;10.40;5.40;;;;;;;1.85;71.28;100024.08;1776623;80;21201;-73
2021/04/27 01:38:34;;;;;;;10.90;5.55;;;;;;;1.85;71.71;100026.68;1770396;80;21399;-73
2021/04/27 01:41:03;;;;;;;10.00;5.10;;;;;;;1.84;71.23;100019.77;1745623;80;21187;-73
2021/04/27 01:43:34;;;;;;;10.85;5.45;;;;;;;1.83;71.62;100018.47;1745877;82;22185;-72
2021/04/27 01:46:06;;;;;;;14.15;6.37;;;;;;;1.83;71.96;100018.02;1746438;82;21170;-74
2021/04/27 01:48:37;;;;;;;10.48;5.10;;;;;;;1.82;71.63;100020.20;1715065;82;21135;-73
2021/04/27 01:51:08;;;;;;;11.15;5.15;;;;;;;1.83;72.56;100025.81;1745688;82;21416;-74
2021/04/27 01:53:53;;;;;;;11.10;5.33;;;;;;;1.84;72.27;100027.56;1745516;82;21222;-73
2021/04/27 01:56:24;;;;;;;11.33;4.72;;;;;;;1.81;71.68;100019.76;1745677;82;21206;-74
2021/04/27 01:58:53;;;;;;;10.40;5.25;;;;;;;1.82;71.74;100028.00;1745468;82;22354;-72
2021/04/27 02:01:26;;;;;;;12.03;5.95;;;;;;;1.81;71.83;100036.64;1744545;82;21198;-73
2021/04/27 02:03:57;;;;;;;8.85;5.20;;;;;;;1.78;72.02;100034.06;1740216;82;22643;-72
2021/04/27 02:06:33;;;;;;;8.75;5.00;;;;;;;1.77;72.72;100031.45;1703875;83;21223;-76
2021/04/27 02:09:10;;;;;;;9.18;5.45;;;;;;;1.75;73.65;100037.98;1716020;83;21219;-72
2021/04/27 02:11:46;;;;;;;11.00;5.95;;;;;;;1.74;73.43;100040.13;1715950;83;21186;-73
2021/04/27 02:14:13;;;;;;;11.55;5.42;;;;;;;1.72;73.63;100039.26;1685675;83;21128;-73
2021/04/27 02:17:03;;;;;;;9.08;5.37;;;;;;;1.70;73.91;100039.70;1715687;83;22372;-72
2021/04/27 02:19:32;;;;;;;10.05;5.08;;;;;;;1.67;73.64;100031.48;1678772;83;21246;-72
2021/04/27 02:22:16;;;;;;;9.03;5.30;;;;;;;1.70;73.65;100037.09;1834446;78;22715;-73
2021/04/27 02:24:46;;;;;;;10.18;5.58;;;;;;;1.61;73.91;100040.60;1806107;79;22155;-74
2021/04/27 02:27:14;;;;;;;9.38;5.55;;;;;;;1.59;74.24;100037.14;1806129;79;21475;-74
2021/04/27 02:29:43;;;;;;;7.92;5.03;;;;;;;1.57;74.40;100041.91;1707569;82;21203;-73
2021/04/27 02:32:13;;;;;;;11.60;5.23;;;;;;;1.51;74.39;100038.02;1736015;82;21219;-73
2021/04/27 02:34:43;;;;;;;9.10;5.40;;;;;;;1.46;74.39;100038.88;1736695;82;21197;-73
2021/04/27 02:37:17;;;;;;;10.40;5.05;;;;;;;1.42;75.31;100037.15;1737043;82;22203;-73
2021/04/27 02:39:48;;;;;;;12.28;5.33;;;;;;;1.40;74.70;100035.02;1736140;82;21634;-72
2021/04/27 02:42:16;;;;;;;10.20;4.65;;;;;;;1.38;75.27;100035.45;1736710;82;21171;-72
2021/04/27 02:45:08;;;;;;;10.30;5.33;;;;;;;1.40;74.62;100023.34;1843619;76;22484;-71
2021/04/27 02:47:40;;;;;;;9.55;5.80;;;;;;;1.33;74.63;100032.41;1759886;79;21772;-71
2021/04/27 02:50:11;;;;;;;9.48;5.35;;;;;;;1.29;74.83;100034.57;1815569;79;21708;-71
2021/04/27 02:52:41;;;;;;;11.48;5.40;;;;;;;1.24;74.84;100037.16;1815533;79;21186;-71
2021/04/27 02:55:12;;;;;;;10.15;5.65;;;;;;;1.24;75.28;100037.16;1783852;79;21155;-71
2021/04/27 02:57:41;;;;;;;9.35;5.00;;;;;;;1.23;75.52;100035.45;1815796;79;21583;-72
2021/04/27 03:00:11;;;;;;;9.70;5.65;;;;;;;1.23;76.02;100032.86;1815522;79;21060;-71
2021/04/27 03:02:43;;;;;;;11.38;5.65;;;;;;;1.22;75.95;100031.11;1815525;78;21223;-71
2021/04/27 03:05:12;;;;;;;9.50;5.22;;;;;;;1.22;76.48;100035.00;1815644;79;21162;-73
2021/04/27 03:07:41;;;;;;;11.93;6.22;;;;;;;1.22;76.18;100027.22;1778612;80;21142;-73
2021/04/27 03:10:11;;;;;;;8.83;5.10;;;;;;;1.23;76.52;100031.56;1783471;80;21135;-72
2021/04/27 03:12:41;;;;;;;7.70;5.33;;;;;;;1.23;76.33;100030.27;1783641;80;21182;-73
2021/04/27 03:15:11;;;;;;;10.70;5.40;;;;;;;1.23;76.32;100028.53;1783514;80;21869;-72
2021/04/27 03:17:39;;;;;;;9.40;5.30;;;;;;;1.26;76.74;100031.55;1783507;80;21182;-72
2021/04/27 03:20:10;;;;;;;8.93;5.72;;;;;;;1.30;76.33;100027.23;1783406;79;21179;-72
2021/04/27 03:22:41;;;;;;;12.10;5.53;;;;;;;1.31;76.78;100024.65;1783239;80;21178;-72
2021/04/27 03:25:11;;;;;;;10.23;5.15;;;;;;;1.33;76.77;100031.97;1783324;80;21110;-71
2021/04/27 03:27:41;;;;;;;9.45;5.33;;;;;;;1.37;76.60;100033.70;1783471;80;22700;-72
2021/04/27 03:30:13;;;;;;;12.55;6.55;;;;;;;1.39;76.66;100033.27;1779722;80;21142;-72
2021/04/27 03:32:42;;;;;;;11.08;5.90;;;;;;;1.41;76.56;100036.73;1783518;80;21637;-73
2021/04/27 03:35:12;;;;;;;10.80;6.53;;;;;;;1.45;76.70;100029.38;1783301;80;21186;-73
2021/04/27 03:37:41;;;;;;;10.78;6.37;;;;;;;1.49;76.71;100034.55;1782572;80;21131;-73
2021/04/27 03:40:10;;;;;;;9.85;5.20;;;;;;;1.55;76.43;100031.96;1719734;81;21448;-72
2021/04/27 03:42:39;;;;;;;12.68;6.00;;;;;;;1.58;76.69;100029.34;1752558;81;21158;-72
2021/04/27 03:45:11;;;;;;;9.20;5.25;;;;;;;1.62;76.62;100031.08;1753040;80;21818;-72
2021/04/27 03:47:39;;;;;;;10.85;6.53;;;;;;;1.67;76.82;100038.41;1765336;80;21210;-75
2021/04/27 03:50:13;;;;;;;9.53;5.42;;;;;;;1.71;76.69;100036.25;1781685;80;21179;-73
2021/04/27 03:52:43;;;;;;;12.65;5.75;;;;;;;1.74;76.31;100038.83;1709644;83;21401;-72
2021/04/27 03:55:12;;;;;;;8.60;4.87;;;;;;;1.79;76.52;100041.41;1703254;84;21605;-72
2021/04/27 03:57:40;;;;;;;8.73;5.35;;;;;;;1.85;76.21;100048.75;1718445;83;22252;-71
2021/04/27 04:00:10;;;;;;;12.93;4.92;;;;;;;1.88;76.24;100044.84;1700615;84;21182;-74
2021/04/27 04:02:40;;;;;;;;;;;;;;;1.95;76.62;100041.79;1754210;81;21103;-73
2021/04/27 04:05:11;;;;;;;10.20;5.58;;;;;;;2.02;76.32;100047.83;1751622;81;21200;-73
2021/04/27 04:07:39;;;;;;;9.78;4.78;;;;;;;2.05;75.73;100042.20;1718384;83;21625;-73
2021/04/27 04:10:24;;;;;;;9.75;5.40;;;;;;;2.14;76.25;100043.02;1700898;84;21717;-73
2021/04/27 04:12:52;;;;;;;8.50;5.40;;;;;;;2.26;76.51;100052.08;1700907;84;21210;-72
2021/04/27 04:15:22;;;;;;;9.00;5.47;;;;;;;2.39;76.12;100047.67;1700880;84;21419;-73
2021/04/27 04:17:52;;;;;;;8.28;5.22;;;;;;;2.53;75.49;100047.16;1718644;83;21343;-73
2021/04/27 04:20:23;;;;;;;9.68;5.58;;;;;;;2.69;75.12;100054.02;1700956;84;21729;-73
2021/04/27 04:23:09;;;;;;;8.43;5.08;;;;;;;2.84;74.40;100048.28;1756308;80;21167;-73
2021/04/27 04:25:37;;;;;;;11.00;5.12;;;;;;;3.02;74.13;100053.36;1771372;80;21159;-75
2021/04/27 04:28:06;;;;;;;7.87;4.85;;;;;;;3.20;73.63;100044.97;1743798;80;21119;-74
2021/04/27 04:30:34;;;;;;;10.03;4.70;;;;;;;3.38;72.99;100044.80;1767201;79;21224;-75
2021/04/27 04:33:22;;;;;;;9.75;4.92;;;;;;;3.61;72.53;100048.94;1767718;80;21138;-75
2021/04/27 04:36:09;;;;;;;6.43;4.80;;;;;;;3.96;71.60;100036.41;1878950;76;25263;-77
2021/04/27 04:38:57;;;;;;;10.05;4.65;;;;;;;4.23;71.28;100049.97;1753228;80;21211;-77
2021/04/27 04:41:44;;;;;;;10.40;4.90;;;;;;;4.60;69.22;100039.06;1750296;81;22416;-76
2021/04/27 04:44:32;;;;;;;7.67;4.47;;;;;;;4.89;67.37;100039.95;1739396;81;21800;-79
2021/04/27 04:47:19;;;;;;;7.97;4.80;;;;;;;5.18;66.52;100039.95;1735739;81;21629;-77
2021/04/27 04:50:07;;;;;;;9.93;5.35;;;;;;;5.47;66.79;100039.42;1766715;79;21221;-75
2021/04/27 04:52:54;;;;;;;7.03;4.83;;;;;;;5.90;64.71;100037.34;1799653;78;27888;-75
2021/04/27 04:55:23;;;;;;;10.08;4.92;;;;;;;6.13;63.18;100038.68;1711310;82;21783;-76
2021/04/27 04:58:09;;;;;;;8.75;5.25;;;;;;;6.38;62.08;100044.27;1713494;82;21211;-76
2021/04/27 05:00:45;;;;;;;6.97;4.58;;;;;;;6.43;60.63;100036.72;1712824;82;21191;-76
2021/04/27 05:03:15;;;;;;;7.87;5.15;;;;;;;6.49;61.26;100028.75;1710262;82;21227;-76
2021/04/27 05:06:01;;;;;;;7.65;4.92;;;;;;;6.73;61.41;100042.17;1711075;82;21183;-76
2021/04/27 05:08:51;;;;;;;8.73;4.60;;;;;;;6.97;59.02;100043.38;1702112;82;21703;-76
2021/04/27 05:11:38;;;;;;;7.80;4.53;;;;;;;6.93;59.42;100041.72;1712523;82;21823;-76
2021/04/27 05:14:11;;;;;;;9.75;5.00;;;;;;;7.12;58.30;100046.06;1712796;82;21573;-76
2021/04/27 05:16:42;;;;;;;12.37;4.78;;;;;;;7.25;56.84;100047.95;1716293;82;21163;-75
2021/04/27 05:19:10;;;;;;;11.43;5.00;;;;;;;7.19;56.85;100051.56;1683719;85;21200;-76
2021/04/27 05:21:39;;;;;;;7.58;4.83;;;;;;;7.08;56.72;100048.34;1727476;82;21664;-76
2021/04/27 05:24:08;;;;;;;7.80;4.55;;;;;;;7.06;56.85;100057.98;1736168;82;21384;-76
2021/04/27 05:26:37;;;;;;;11.10;5.87;;;;;;;7.06;56.91;100052.75;1731788;82;21666;-76
2021/04/27 05:29:05;;;;;;;10.78;5.20;;;;;;;7.15;57.21;100052.53;1687171;84;21199;-77
2021/04/27 05:31:33;;;;;;;10.93;4.67;;;;;;;7.16;55.74;100049.48;1735565;82;21164;-77
2021/04/27 05:34:01;;;;;;;6.50;4.35;;;;;;;7.21;56.62;100052.39;1703710;82;21615;-77
2021/04/27 05:36:31;;;;;;;9.28;4.87;;;;;;;7.40;57.60;100052.78;1723678;82;22284;-78
2021/04/27 05:39:00;;;;;;;6.53;4.55;;;;;;;7.34;55.95;100053.81;1713324;81;21195;-77
2021/04/27 05:41:28;;;;;;;7.45;4.92;;;;;;;7.38;56.05;100053.73;1680434;83;21773;-78
2021/04/27 05:43:56;;;;;;;8.65;4.15;;;;;;;7.90;56.18;100054.99;1710326;82;21152;-77
2021/04/27 05:46:24;;;;;;;9.75;4.90;;;;;;;8.37;53.63;100050.16;1701044;83;21207;-77
2021/04/27 05:48:52;;;;;;;10.05;4.15;;;;;;;8.36;51.94;100056.33;1693525;82;22696;-77
2021/04/27 05:51:20;;;;;;;7.47;3.80;;;;;;;8.02;52.39;100054.65;1693053;83;21226;-78
2021/04/27 05:53:48;;;;;;;5.97;3.92;;;;;;;7.95;51.96;100049.16;1690327;83;21183;-78
2021/04/27 05:56:16;;;;;;;7.35;4.37;;;;;;;8.11;51.95;100050.45;1686167;83;21785;-78
2021/04/27 05:58:44;;;;;;;13.30;4.22;;;;;;;8.57;51.13;100047.84;1691098;83;21164;-79
2021/04/27 06:01:13;;;;;;;7.20;4.00;;;;;;;9.22;50.73;100036.19;1681817;83;21843;-78
2021/04/27 06:03:42;;;;;;;4.22;3.40;;;;;;;9.92;47.36;100036.45;1689581;83;22305;-77
2021/04/27 06:06:10;;;;;;;4.47;3.15;;;;;;;10.31;45.97;100030.64;1707331;82;21144;-78
2021/04/27 06:08:38;;;;;;;4.92;3.10;;;;;;;10.51;46.79;100038.64;1711378;82;21716;-78
2021/04/27 06:11:07;;;;;;;5.15;3.05;;;;;;;10.66;44.83;100046.43;1684509;84;21211;-78
2021/04/27 06:13:35;;;;;;;5.83;2.87;;;;;;;10.94;44.45;100038.30;1708542;82;22518;-78
2021/04/27 06:16:05;;;;;;;5.60;3.42;;;;;;;11.25;44.18;100036.60;1708938;82;21706;-79
2021/04/27 06:18:33;;;;;;;5.70;3.12;;;;;;;11.27;41.99;100040.47;1697683;83;21171;-78
2021/04/27 06:21:01;;;;;;;6.15;3.58;;;;;;;11.41;43.25;100036.83;1710305;82;21159;-78
2021/04/27 06:23:30;;;;;;;14.83;3.33;;;;;;;11.55;42.49;100041.05;1716573;82;21232;-78
2021/04/27 06:25:58;;;;;;;6.60;2.95;;;;;;;11.54;40.44;100041.11;1700822;82;22676;-78
2021/04/27 06:28:42;;;;;;;15.20;3.90;;;;;;;11.61;39.09;100040.38;1797893;78;28279;-78
2021/04/27 06:31:10;;;;;;;5.03;2.65;;;;;;;11.71;39.24;100037.73;1777392;79;21175;-78
2021/04/27 06:33:38;;;;;;;4.22;2.70;;;;;;;11.91;39.51;100040.40;1785094;79;21355;-78
2021/04/27 06:36:09;;;;;;;4.80;3.05;;;;;;;11.54;37.64;100042.42;1781846;79;21060;-78
2021/04/27 06:38:37;;;;;;;6.55;2.98;;;;;;;11.00;38.96;100034.58;1773116;79;21449;-77
2021/04/27 06:41:06;;;;;;;11.83;3.92;;;;;;;10.70;41.20;100045.41;1767041;80;21151;-78
2021/04/27 06:43:34;;;;;;;7.03;3.37;;;;;;;10.97;40.47;100038.16;1769504;80;21555;-77
2021/04/27 06:46:18;;;;;;;6.50;4.47;;;;;;;10.91;40.30;100037.96;1822578;76;28297;-78
2021/04/27 06:48:46;;;;;;;8.30;3.92;;;;;;;10.91;42.77;100039.75;1794840;78;21163;-77
2021/04/27 06:51:17;;;;;;;5.25;3.50;;;;;;;10.94;40.50;100044.88;1788104;79;22821;-78
2021/04/27 06:53:46;;;;;;;8.13;3.45;;;;;;;10.97;40.49;100042.11;1794645;77;21230;-75
2021/04/27 06:56:14;;;;;;;9.08;4.00;;;;;;;10.90;40.13;100044.59;1802710;78;21543;-74
2021/04/27 06:58:43;;;;;;;11.70;3.60;;;;;;;10.81;40.18;100039.70;1789537;77;21163;-74
2021/04/27 07:01:11;;;;;;;6.65;3.80;;;;;;;10.94;40.99;100040.92;1805648;78;21149;-73
2021/04/27 07:03:48;;;;;;;6.50;3.55;;;;;;;11.04;40.49;100037.02;1790127;78;21590;-73
2021/04/27 07:06:11;;;;;;;5.65;3.40;;;;;;;11.31;39.46;100047.34;1786796;79;21138;-73
2021/04/27 07:08:39;;;;;;;6.05;3.37;;;;;;;11.36;38.25;100050.64;1803576;78;21178;-71
2021/04/27 07:11:09;;;;;;;5.05;3.45;;;;;;;11.46;38.00;100050.67;1801065;78;21677;-74
2021/04/27 07:13:38;;;;;;;5.12;3.47;;;;;;;11.65;37.83;100052.53;1805797;78;21171;-74
2021/04/27 07:16:07;;;;;;;5.15;3.37;;;;;;;11.79;36.46;100050.15;1741765;81;21209;-74
2021/04/27 07:18:35;;;;;;;11.88;3.83;;;;;;;11.81;36.68;100056.22;1741997;81;21207;-74
2021/04/27 07:21:05;;;;;;;4.95;3.02;;;;;;;11.96;37.58;100047.67;1747163;82;21230;-74
2021/04/27 07:23:33;;;;;;;5.50;3.20;;;;;;;12.15;35.79;100046.86;1750474;81;21187;-73
2021/04/27 07:26:03;;;;;;;10.28;4.00;;;;;;;12.14;36.94;100047.77;1799380;78;21579;-72
2021/04/27 07:28:31;;;;;;;7.78;3.42;;;;;;;12.14;38.12;100049.08;1803734;79;22533;-74
2021/04/27 07:30:59;;;;;;;4.87;3.30;;;;;;;12.11;36.33;100050.55;1808978;79;21116;-72
2021/04/27 07:33:27;;;;;;;4.33;2.67;;;;;;;12.07;36.97;100045.01;1747234;81;21213;-73
2021/04/27 07:35:56;;;;;;;5.10;2.92;;;;;;;11.98;34.92;100049.38;1751283;81;21197;-72
2021/04/27 07:38:24;;;;;;;5.22;2.75;;;;;;;11.95;35.23;100052.54;1726722;81;21206;-73
2021/04/27 07:40:52;;;;;;;7.03;2.42;;;;;;;12.28;35.22;100049.31;1721952;82;22263;-73
2021/04/27 07:43:21;;;;;;;9.65;3.05;;;;;;;12.40;34.14;100049.25;1717319;82;21669;-73
2021/04/27 07:45:49;;;;;;;6.08;2.60;;;;;;;12.56;33.45;100049.37;1715421;83;21209;-73
2021/04/27 07:49:31;;;;;;;7.47;2.90;;;;;;;13.03;33.83;100038.34;1758051;79;22705;-72
2021/04/27 07:51:59;;;;;;;4.20;2.80;;;;;;;13.27;32.92;100045.52;1739059;82;21189;-73
2021/04/27 07:54:28;;;;;;;4.90;2.87;;;;;;;13.59;32.96;100042.61;1727424;82;21899;-73
2021/04/27 07:56:56;;;;;;;9.23;3.17;;;;;;;13.96;33.38;100038.06;1727264;82;21190;-73
2021/04/27 07:59:24;;;;;;;9.85;2.75;;;;;;;14.25;31.63;100026.41;1717174;83;21179;-73
2021/04/27 08:01:52;;;;;;;3.22;2.40;;;;;;;13.92;31.14;100039.19;1737785;82;21140;-74
2021/04/27 08:04:21;;;;;;;5.15;2.35;;;;;;;13.90;30.99;100030.47;1747378;82;21148;-73
2021/04/27 08:06:50;;;;;;;11.45;2.92;;;;;;;13.72;30.61;100040.69;1741828;81;21326;-74
2021/04/27 08:09:17;;;;;;;6.78;2.83;;;;;;;13.57;31.61;100044.52;1726960;82;21167;-73
2021/04/27 08:11:46;;;;;;;8.30;2.98;;;;;;;13.57;31.31;100043.19;1725015;82;21191;-72
2021/04/27 08:14:15;;;;;;;4.53;2.80;;;;;;;13.70;31.31;100034.61;1726325;82;21642;-73
2021/04/27 08:16:43;;;;;;;5.60;2.87;;;;;;;13.56;32.99;100029.55;1743327;82;21186;-73
2021/04/27 08:19:12;;;;;;;10.43;2.85;;;;;;;13.48;32.51;100035.72;1739202;81;22162;-73
2021/04/27 08:21:40;;;;;;;4.70;2.62;;;;;;;13.42;32.56;100032.05;1730717;82;21146;-72
2021/04/27 08:24:10;;;;;;;7.92;2.95;;;;;;;13.51;32.92;100032.91;1728997;82;21166;-73
2021/04/27 08:26:39;;;;;;;4.28;2.52;;;;;;;13.60;33.73;100034.23;1719112;82;21175;-74
2021/04/27 08:29:07;;;;;;;5.00;3.15;;;;;;;13.69;34.50;100035.53;1716749;83;21205;-75
2021/04/27 08:31:38;;;;;;;6.05;2.90;;;;;;;13.63;32.37;100032.27;1712943;82;22250;-75
2021/04/27 08:34:06;;;;;;;23.92;3.58;;;;;;;13.44;32.03;100027.54;1743069;82;21191;-71
2021/04/27 08:36:36;;;;;;;12.05;3.20;;;;;;;13.32;32.09;100017.11;1738290;81;21676;-73
2021/04/27 08:39:06;;;;;;;6.33;3.12;;;;;;;13.41;31.63;100011.80;1716369;83;21229;-69
2021/04/27 08:41:34;;;;;;;5.75;2.65;;;;;;;13.75;31.53;100008.28;1700863;83;21179;-72
2021/04/27 08:44:02;;;;;;;6.03;2.50;;;;;;;14.19;31.00;99997.59;1682755;83;21208;-73
2021/04/27 08:46:31;;;;;;;4.47;2.75;;;;;;;14.59;29.97;100003.41;1632331;83;21179;-73
2021/04/27 08:49:00;;;;;;;7.70;2.50;;;;;;;14.82;30.74;99997.66;1713754;83;21151;-72
2021/04/27 08:51:29;;;;;;;15.03;5.95;;;;;;;15.06;28.98;100003.83;1692299;83;21231;-73
2021/04/27 08:53:59;;;;;;;8.20;2.98;;;;;;;14.88;29.32;100003.08;1713683;83;21198;-73
2021/04/27 08:56:28;;;;;;;4.67;2.35;;;;;;;15.00;29.21;100010.35;1711661;83;22530;-72
2021/04/27 08:58:57;;;;;;;3.47;2.40;;;;;;;15.02;28.78;100002.28;1718396;83;21587;-72
2021/04/27 09:01:25;;;;;;;4.90;2.40;;;;;;;15.00;29.74;100002.40;1713057;83;21211;-73
2021/04/27 09:03:54;;;;;;;9.55;2.50;;;;;;;14.94;28.34;99999.23;1706195;83;21246;-72
2021/04/27 09:06:23;;;;;;;7.15;2.20;;;;;;;14.74;27.59;100001.20;1653165;86;21413;-72
2021/04/27 09:08:53;;;;;;;4.58;2.10;;;;;;;14.38;27.80;99995.67;1712763;83;21376;-72
2021/04/27 09:11:38;;;;;;;8.35;2.60;;;;;;;14.07;29.07;100011.03;1706456;83;21223;-72
2021/04/27 09:14:20;;;;;;;4.25;2.00;;;;;;;14.03;27.82;100012.12;1695520;83;21183;-72
2021/04/27 09:16:56;;;;;;;5.03;1.80;;;;;;;13.93;28.00;100010.91;1701090;83;21131;-72
2021/04/27 09:19:44;;;;;;;2.77;2.05;;;;;;;13.88;28.86;100007.66;1653359;86;21178;-71
2021/04/27 09:22:27;;;;;;;4.50;2.20;;;;;;;13.81;28.20;100001.83;1700986;83;21367;-71
2021/04/27 09:25:07;;;;;;;3.50;2.20;;;;;;;13.69;29.99;99999.80;1705687;83;21194;-73
2021/04/27 09:27:42;;;;;;;3.45;1.92;;;;;;;13.64;31.29;100006.22;1707168;83;21179;-71
2021/04/27 09:30:27;;;;;;;4.22;2.42;;;;;;;13.54;28.78;100004.11;1706030;83;21165;-72
2021/04/27 09:33:07;;;;;;;9.80;2.58;;;;;;;13.21;29.46;100007.03;1694817;83;21171;-73
2021/04/27 09:35:41;;;;;;;2.60;1.75;;;;;;;12.96;29.50;100002.56;1713928;83;21381;-72
2021/04/27 09:38:22;;;;;;;5.95;2.60;;;;;;;12.93;29.68;100004.02;1705065;83;21221;-71
2021/04/27 09:41:05;;;;;;;7.20;2.60;;;;;;;12.95;29.85;99999.08;1706875;83;21170;-72
2021/04/27 09:43:42;;;;;;;5.30;2.40;;;;;;;12.90;29.75;100001.53;1716638;83;21183;-72
2021/04/27 09:46:15;;;;;;;3.27;1.90;;;;;;;12.77;32.27;99999.50;1717950;83;21155;-72
2021/04/27 09:48:54;;;;;;;6.85;2.17;;;;;;;12.68;28.76;99992.48;1712672;83;21851;-73
2021/04/27 09:51:26;;;;;;;3.75;2.20;;;;;;;12.55;29.51;100004.08;1711426;83;21214;-71
2021/04/27 09:54:01;;;;;;;3.55;1.90;;;;;;;12.40;30.58;99999.06;1686767;83;21240;-71
2021/04/27 09:56:40;;;;;;;5.92;2.20;;;;;;;12.58;29.97;99999.96;1685497;83;21189;-72
2021/04/27 09:59:13;;;;;;;2.22;1.42;;;;;;;12.97;29.57;100001.62;1692941;83;21142;-71
2021/04/27 10:01:47;;;;;;;4.60;2.00;;;;;;;13.31;31.08;99999.98;1690589;83;21880;-72
2021/04/27 10:04:17;;;;;;;7.08;2.12;;;;;;;13.68;29.14;99992.81;1693729;83;21190;-73
2021/04/27 10:06:46;;;;;;;3.30;2.00;;;;;;;14.01;28.56;99992.38;1694270;83;21171;-72
2021/04/27 10:09:14;;;;;;;4.05;1.80;;;;;;;13.67;29.15;99993.77;1696227;83;21219;-73
2021/04/27 10:11:42;;;;;;;6.62;2.60;;;;;;;13.68;28.24;99986.20;1684948;84;21160;-72
2021/04/27 10:14:11;;;;;;;4.85;2.27;;;;;;;13.79;29.14;99990.47;1689653;84;21226;-71
2021/04/27 10:16:39;;;;;;;5.33;1.75;;;;;;;13.90;28.58;99989.44;1668780;84;21672;-72
2021/04/27 10:19:09;;;;;;;7.25;2.33;;;;;;;14.00;29.95;99986.67;1668847;85;21219;-72
2021/04/27 10:21:37;;;;;;;5.78;1.65;;;;;;;14.22;28.33;99982.89;1669187;85;21712;-72
2021/04/27 10:24:10;;;;;;;4.33;2.00;;;;;;;14.34;27.18;99977.38;1702742;82;21194;-75
2021/04/27 10:26:38;;;;;;;4.17;1.92;;;;;;;14.42;27.35;99980.45;1698834;82;21419;-74
2021/04/27 10:29:11;;;;;;;9.30;2.33;;;;;;;14.53;26.76;99981.19;1698157;83;21165;-74
2021/04/27 10:31:40;;;;;;;6.10;2.27;;;;;;;14.70;26.34;99967.89;1698227;83;21200;-73
2021/04/27 10:34:17;;;;;;;4.65;2.08;;;;;;;14.64;25.98;99979.67;1695568;83;21221;-74
2021/04/27 10:36:57;;;;;;;2.55;1.75;;;;;;;14.47;26.07;99975.30;1685734;84;21202;-72
2021/04/27 10:39:42;;;;;;;25.25;3.65;;;;;;;14.34;26.70;99973.41;1695446;84;21381;-71
2021/04/27 10:42:26;;;;;;;7.05;1.90;;;;;;;14.15;26.29;99981.48;1701549;83;21199;-70
2021/04/27 10:45:05;;;;;;;2.98;1.75;;;;;;;13.96;26.68;99981.14;1683557;83;21197;-73
2021/04/27 10:47:42;;;;;;;11.55;2.12;;;;;;;13.88;26.90;99980.72;1678781;83;21181;-71
2021/04/27 10:50:29;;;;;;;7.92;2.12;;;;;;;13.94;27.99;99975.11;1702445;83;21164;-71
2021/04/27 10:53:34;;;;;;;5.58;1.77;;;;;;;13.82;27.15;99977.06;1712127;83;21741;-70
2021/04/27 10:56:04;;;;;;;23.95;3.22;;;;;;;13.53;27.11;99974.16;1711875;83;21149;-69
2021/04/27 10:58:48;;;;;;;10.28;2.60;;;;;;;13.35;27.07;99976.42;1711790;83;21186;-71
2021/04/27 11:01:29;;;;;;;2.58;1.82;;;;;;;13.31;28.16;99981.47;1706295;83;21225;-70
2021/04/27 11:04:00;;;;;;;3.83;2.15;;;;;;;13.05;27.64;99976.16;1688634;83;21179;-70
2021/04/27 11:06:30;;;;;;;3.22;1.95;;;;;;;12.75;28.03;99980.69;1691118;83;21186;-70
2021/04/27 11:09:14;;;;;;;5.80;1.80;;;;;;;12.66;28.27;99970.56;1668855;85;21206;-71
2021/04/27 11:11:43;;;;;;;4.78;2.47;;;;;;;12.57;28.47;99971.85;1704518;83;21197;-71
2021/04/27 11:14:22;;;;;;;4.37;2.17;;;;;;;12.53;29.45;99967.16;1680756;85;21716;-71
2021/04/27 11:16:57;;;;;;;5.37;2.22;;;;;;;12.60;29.45;99969.05;1680363;83;21713;-71
2021/04/27 11:19:31;;;;;;;3.17;2.00;;;;;;;12.57;29.56;99956.84;1668883;85;21375;-71
2021/04/27 11:22:19;;;;;;;3.22;1.75;;;;;;;12.48;29.11;99959.08;1668651;85;21206;-71
2021/04/27 11:24:48;;;;;;;6.28;2.50;;;;;;;12.31;31.01;99960.73;1698379;83;21182;-71
2021/04/27 11:27:33;;;;;;;3.65;2.20;;;;;;;12.20;29.73;99957.73;1697915;83;22136;-73
2021/04/27 11:30:13;;;;;;;7.20;2.72;;;;;;;12.10;28.58;99951.16;1698154;83;21682;-72
2021/04/27 11:32:48;;;;;;;4.20;2.05;;;;;;;11.94;28.77;99953.67;1707486;83;21372;-75
2021/04/27 11:35:19;;;;;;;11.12;4.20;;;;;;;12.08;29.56;99950.39;1711806;83;21192;-75
2021/04/27 11:37:56;;;;;;;10.05;2.62;;;;;;;12.31;31.97;99952.81;1694998;83;21191;-74
2021/04/27 11:40:50;;;;;;;5.97;2.62;;;;;;;12.37;30.35;99952.50;1709046;83;21468;-76
2021/04/27 11:43:18;;;;;;;3.98;1.90;;;;;;;12.46;29.25;99945.09;1671194;85;21147;-75
2021/04/27 11:45:48;;;;;;;3.95;2.10;;;;;;;12.31;27.64;99943.58;1659213;86;21355;-75
2021/04/27 11:48:21;;;;;;;3.62;1.80;;;;;;;12.12;27.76;99942.70;1640873;86;21222;-76
2021/04/27 11:50:50;;;;;;;2.83;1.82;;;;;;;11.88;28.00;99942.06;1639366;87;21226;-73
2021/04/27 11:53:21;;;;;;;6.05;1.77;;;;;;;11.82;28.34;99940.50;1639728;87;21478;-72
2021/04/27 11:55:57;;;;;;;4.90;2.70;;;;;;;11.84;28.51;99939.98;1640392;85;21772;-72